Time;durP1;ratioP1;P1;durP2;ratioP2;P2;SDS_P1;SDS_P2;PMS_P1;PMS_P2;Temp;Humidity;BMP_temperature;BMP_pressure;BME280_temperature;BME280_humidity;BME280_pressure;Samples;Min_cycle;Max_cycle;Signal;HPM_P1;HPM_P2
2021/09/19 00:02:16;;;;;;;;;15.25;15.25;;;;;;;;5012846;28;51040;-58
2021/09/19 00:04:41;;;;;;;;;10.00;10.00;;;;;;;;5012952;28;52030;-59
2021/09/19 00:07:07;;;;;;;;;12.00;11.33;;;;;;;;5012672;28;51012;-58
2021/09/19 00:09:32;;;;;;;;;13.50;13.00;;;;;;;;5013198;28;51207;-58
2021/09/19 00:11:57;;;;;;;;;7.67;7.67;;;;;;;;5012233;28;51135;-58
2021/09/19 00:14:23;;;;;;;;;9.00;8.00;;;;;;;;5011849;28;51844;-58
2021/09/19 00:16:48;;;;;;;;;12.33;12.33;;;;;;;;5010934;28;51055;-58
2021/09/19 00:19:14;;;;;;;;;12.00;11.00;;;;;;;;5013230;28;51417;-59
2021/09/19 00:21:40;;;;;;;;;12.00;12.00;;;;;;;;5012660;28;51043;-58
2021/09/19 00:24:05;;;;;;;;;10.67;10.67;;;;;;;;5012267;28;52030;-58
2021/09/19 00:26:30;;;;;;;;;11.67;10.00;;;;;;;;4994469;28;51166;-58
2021/09/19 00:28:55;;;;;;;;;11.00;11.00;;;;;;;;5012725;28;50970;-58
2021/09/19 00:31:20;;;;;;;;;11.67;11.67;;;;;;;;5012210;28;50849;-58
2021/09/19 00:33:46;;;;;;;;;10.67;10.67;;;;;;;;5010759;28;51102;-57
2021/09/19 00:36:11;;;;;;;;;9.67;9.67;;;;;;;;5013132;28;50928;-58
2021/09/19 00:38:36;;;;;;;;;8.67;8.67;;;;;;;;5013026;28;51030;-58
2021/09/19 00:41:01;;;;;;;;;11.00;11.00;;;;;;;;5013237;28;50926;-62
2021/09/19 00:43:27;;;;;;;;;8.00;8.00;;;;;;;;5008788;28;51119;-59
2021/09/19 00:45:52;;;;;;;;;9.00;9.00;;;;;;;;5012646;28;51019;-59
2021/09/19 00:48:17;;;;;;;;;11.00;10.67;;;;;;;;5012906;28;51146;-59
2021/09/19 00:50:42;;;;;;;;;12.67;12.00;;;;;;;;5012043;28;51237;-58
2021/09/19 00:53:08;;;;;;;;;9.33;9.33;;;;;;;;5011962;28;51620;-58
2021/09/19 00:55:33;;;;;;;;;7.00;7.00;;;;;;;;5012586;28;51192;-58
2021/09/19 00:58:04;;;;;;;;;8.00;7.67;;;;;;;;4981353;28;51098;-58
2021/09/19 01:00:29;;;;;;;;;10.33;9.67;;;;;;;;4998842;28;51171;-58
2021/09/19 01:02:55;;;;;;;;;6.67;6.67;;;;;;;;4997109;28;51047;-59
2021/09/19 01:05:21;;;;;;;;;7.67;7.67;;;;;;;;5015250;28;50996;-58
2021/09/19 01:07:47;;;;;;;;;9.00;8.67;;;;;;;;5014723;28;50895;-57
2021/09/19 01:10:13;;;;;;;;;9.67;9.67;;;;;;;;5016412;28;50851;-59
2021/09/19 01:12:38;;;;;;;;;9.67;9.67;;;;;;;;5013410;28;51318;-58
2021/09/19 01:15:04;;;;;;;;;10.00;10.00;;;;;;;;5014061;28;51184;-58
2021/09/19 01:17:29;;;;;;;;;9.00;9.00;;;;;;;;5015861;28;50976;-58
2021/09/19 01:19:57;;;;;;;;;10.00;9.00;;;;;;;;5000372;28;51128;-58
2021/09/19 01:22:33;;;;;;;;;11.33;10.00;;;;;;;;5014948;28;51769;-58
2021/09/19 01:24:59;;;;;;;;;9.33;9.33;;;;;;;;5015528;28;51134;-58
2021/09/19 01:27:24;;;;;;;;;12.00;10.67;;;;;;;;4995482;28;51111;-58
2021/09/19 01:29:49;;;;;;;;;13.00;13.00;;;;;;;;5015900;28;50818;-58
2021/09/19 01:32:18;;;;;;;;;12.00;10.67;;;;;;;;5013517;28;51893;-57
2021/09/19 01:34:43;;;;;;;;;11.67;11.67;;;;;;;;5015633;28;50956;-58
2021/09/19 01:37:08;;;;;;;;;10.00;9.33;;;;;;;;5015553;28;51126;-58
2021/09/19 01:39:34;;;;;;;;;11.33;10.67;;;;;;;;5016092;28;51204;-58
2021/09/19 01:41:59;;;;;;;;;8.00;8.00;;;;;;;;5013871;28;51247;-58
2021/09/19 01:44:24;;;;;;;;;9.67;9.00;;;;;;;;5015236;28;51073;-58
2021/09/19 01:46:49;;;;;;;;;12.67;12.00;;;;;;;;5014225;28;51287;-58
2021/09/19 01:49:15;;;;;;;;;14.00;13.50;;;;;;;;5016002;28;51103;-58
2021/09/19 01:51:40;;;;;;;;;11.67;11.67;;;;;;;;5013268;28;52187;-58
2021/09/19 01:54:05;;;;;;;;;10.33;10.33;;;;;;;;5015602;28;51020;-58
2021/09/19 01:56:30;;;;;;;;;12.00;12.00;;;;;;;;5014641;28;51322;-58
2021/09/19 01:58:56;;;;;;;;;12.33;11.67;;;;;;;;5015693;28;51010;-57
2021/09/19 02:01:22;;;;;;;;;13.33;12.67;;;;;;;;5015291;28;51763;-58
2021/09/19 02:03:47;;;;;;;;;14.67;12.33;;;;;;;;5010904;28;51108;-58
2021/09/19 02:06:13;;;;;;;;;10.67;10.33;;;;;;;;5015525;28;50992;-58
2021/09/19 02:08:38;;;;;;;;;11.33;11.33;;;;;;;;5015107;28;50961;-58
2021/09/19 02:11:04;;;;;;;;;12.00;12.00;;;;;;;;5015186;28;52115;-58
2021/09/19 02:13:30;;;;;;;;;14.00;12.00;;;;;;;;5011996;28;50945;-58
2021/09/19 02:15:55;;;;;;;;;13.33;13.33;;;;;;;;4995922;28;50990;-58
2021/09/19 02:18:20;;;;;;;;;13.00;11.67;;;;;;;;5015270;28;51183;-58
2021/09/19 02:20:46;;;;;;;;;13.67;13.67;;;;;;;;5014017;28;51071;-57
2021/09/19 02:23:11;;;;;;;;;12.00;11.33;;;;;;;;5013970;28;51018;-58
2021/09/19 02:25:36;;;;;;;;;12.33;12.00;;;;;;;;5015302;28;51035;-58
2021/09/19 02:28:01;;;;;;;;;11.00;9.67;;;;;;;;5015073;28;51030;-57
2021/09/19 02:30:27;;;;;;;;;11.00;11.00;;;;;;;;4997188;28;51878;-58
2021/09/19 02:32:52;;;;;;;;;12.33;11.33;;;;;;;;5014322;28;50884;-58
2021/09/19 02:35:17;;;;;;;;;15.00;14.00;;;;;;;;5013655;28;50903;-58
2021/09/19 02:37:43;;;;;;;;;12.00;11.67;;;;;;;;5015319;28;51142;-58
2021/09/19 02:40:09;;;;;;;;;15.33;15.33;;;;;;;;5014618;28;51611;-58
2021/09/19 02:42:34;;;;;;;;;14.00;14.00;;;;;;;;4994523;28;51185;-58
2021/09/19 02:45:02;;;;;;;;;15.33;14.33;;;;;;;;5014194;28;51166;-57
2021/09/19 02:47:27;;;;;;;;;16.67;15.33;;;;;;;;5015141;28;50980;-57
2021/09/19 02:49:52;;;;;;;;;13.00;12.67;;;;;;;;5014573;28;51897;-57
2021/09/19 02:52:17;;;;;;;;;13.67;13.67;;;;;;;;5013855;28;51008;-58
2021/09/19 02:54:42;;;;;;;;;12.67;12.67;;;;;;;;5014732;28;50961;-57
2021/09/19 02:57:08;;;;;;;;;14.00;14.00;;;;;;;;5014642;28;51095;-57
2021/09/19 02:59:33;;;;;;;;;16.75;16.00;;;;;;;;5013615;28;51129;-58
2021/09/19 03:01:58;;;;;;;;;16.00;15.33;;;;;;;;5013495;28;51218;-58
2021/09/19 03:04:23;;;;;;;;;15.00;14.00;;;;;;;;5014676;28;51240;-57
2021/09/19 03:06:48;;;;;;;;;13.00;12.67;;;;;;;;5014842;28;52196;-57
2021/09/19 03:09:14;;;;;;;;;16.00;15.00;;;;;;;;5014449;28;51831;-58
2021/09/19 03:11:39;;;;;;;;;15.75;15.00;;;;;;;;5012616;28;50840;-58
2021/09/19 03:14:04;;;;;;;;;12.00;12.00;;;;;;;;5014030;28;51447;-58
2021/09/19 03:16:29;;;;;;;;;13.67;13.67;;;;;;;;5014445;28;51028;-58
2021/09/19 03:18:55;;;;;;;;;16.33;14.33;;;;;;;;5013565;28;51435;-58
2021/09/19 03:21:20;;;;;;;;;15.00;14.75;;;;;;;;5011490;28;51435;-58
2021/09/19 03:23:45;;;;;;;;;16.25;16.00;;;;;;;;5013673;28;51257;-58
2021/09/19 03:26:10;;;;;;;;;20.00;17.00;;;;;;;;5014521;28;51023;-58
2021/09/19 03:28:35;;;;;;;;;18.75;17.75;;;;;;;;5012328;28;50967;-58
2021/09/19 03:31:01;;;;;;;;;15.75;15.75;;;;;;;;5014117;28;51056;-58
2021/09/19 03:33:26;;;;;;;;;15.00;14.75;;;;;;;;5011918;28;52731;-58
2021/09/19 03:35:51;;;;;;;;;15.00;15.00;;;;;;;;4996531;28;51373;-58
2021/09/19 03:38:16;;;;;;;;;17.00;16.00;;;;;;;;5012040;28;52110;-58
2021/09/19 03:40:42;;;;;;;;;16.50;16.00;;;;;;;;5013994;28;50947;-58
2021/09/19 03:43:07;;;;;;;;;17.75;17.75;;;;;;;;5010308;28;51074;-58
2021/09/19 03:45:32;;;;;;;;;14.00;13.25;;;;;;;;5014013;28;51093;-57
2021/09/19 03:48:01;;;;;;;;;17.25;16.50;;;;;;;;5012827;28;51976;-57
2021/09/19 03:50:26;;;;;;;;;17.00;16.50;;;;;;;;5013894;28;51034;-57
2021/09/19 03:52:52;;;;;;;;;13.75;13.25;;;;;;;;5013039;28;51598;-57
2021/09/19 03:55:17;;;;;;;;;15.25;15.25;;;;;;;;5014140;28;51230;-58
2021/09/19 03:57:42;;;;;;;;;16.75;16.00;;;;;;;;5011799;28;52205;-57
2021/09/19 04:00:08;;;;;;;;;15.75;15.75;;;;;;;;5012506;28;50925;-57
2021/09/19 04:02:33;;;;;;;;;14.25;14.25;;;;;;;;5012713;28;51254;-58
2021/09/19 04:04:58;;;;;;;;;16.50;15.00;;;;;;;;5013785;28;51479;-58
2021/09/19 04:07:23;;;;;;;;;19.25;18.00;;;;;;;;5013456;28;51817;-59
2021/09/19 04:09:48;;;;;;;;;17.50;17.50;;;;;;;;5013566;28;51161;-59
2021/09/19 04:12:13;;;;;;;;;17.25;15.75;;;;;;;;4987268;28;51437;-57
2021/09/19 04:14:39;;;;;;;;;14.25;13.00;;;;;;;;5011100;28;51378;-58
2021/09/19 04:17:04;;;;;;;;;14.25;14.25;;;;;;;;5013248;28;53069;-58
2021/09/19 04:19:29;;;;;;;;;16.00;16.00;;;;;;;;5013555;28;51058;-62
2021/09/19 04:21:55;;;;;;;;;15.75;15.00;;;;;;;;5012639;28;50916;-59
2021/09/19 04:24:20;;;;;;;;;17.50;16.50;;;;;;;;4994160;28;50826;-59
2021/09/19 04:26:46;;;;;;;;;18.00;16.00;;;;;;;;5012519;28;50957;-58
2021/09/19 04:29:11;;;;;;;;;14.00;13.00;;;;;;;;5011693;28;51060;-58
2021/09/19 04:31:36;;;;;;;;;13.25;13.25;;;;;;;;5011396;28;51013;-58
2021/09/19 04:34:02;;;;;;;;;16.00;15.25;;;;;;;;5013461;28;51149;-58
2021/09/19 04:36:27;;;;;;;;;15.25;14.25;;;;;;;;5012994;28;50902;-57
2021/09/19 04:38:52;;;;;;;;;17.25;16.75;;;;;;;;5013000;28;51197;-57
2021/09/19 04:41:17;;;;;;;;;19.75;19.00;;;;;;;;5012652;28;51194;-57
2021/09/19 04:43:42;;;;;;;;;18.75;18.00;;;;;;;;5012997;28;51235;-57
2021/09/19 04:46:07;;;;;;;;;15.25;15.00;;;;;;;;5012917;28;53116;-57
2021/09/19 04:48:33;;;;;;;;;15.50;14.75;;;;;;;;5013084;28;51025;-58
2021/09/19 04:50:58;;;;;;;;;16.00;16.00;;;;;;;;5011860;28;51066;-57
2021/09/19 04:53:23;;;;;;;;;17.00;16.25;;;;;;;;5010513;28;51103;-57
2021/09/19 04:55:48;;;;;;;;;16.00;15.75;;;;;;;;5012594;28;52866;-58
2021/09/19 04:58:14;;;;;;;;;20.25;19.50;;;;;;;;5011913;28;51039;-58
2021/09/19 05:00:39;;;;;;;;;16.75;15.00;;;;;;;;5013142;28;51247;-58
2021/09/19 05:03:04;;;;;;;;;16.50;15.75;;;;;;;;5011511;28;51145;-59
2021/09/19 05:05:29;;;;;;;;;19.75;18.75;;;;;;;;5012461;28;51110;-58
2021/09/19 05:07:54;;;;;;;;;15.25;15.25;;;;;;;;5012824;28;50993;-57
2021/09/19 05:10:20;;;;;;;;;16.00;16.00;;;;;;;;5012947;28;50956;-57
2021/09/19 05:12:45;;;;;;;;;16.00;16.00;;;;;;;;5011766;28;51345;-57
2021/09/19 05:15:10;;;;;;;;;15.75;15.25;;;;;;;;5012720;28;51009;-57
2021/09/19 05:17:36;;;;;;;;;16.75;16.00;;;;;;;;5010163;28;51019;-57
2021/09/19 05:20:01;;;;;;;;;17.00;17.00;;;;;;;;4995008;28;50989;-57
2021/09/19 05:22:26;;;;;;;;;15.00;15.00;;;;;;;;5011982;28;51180;-57
2021/09/19 05:24:51;;;;;;;;;15.75;14.75;;;;;;;;5012434;28;51175;-57
2021/09/19 05:27:17;;;;;;;;;17.75;17.00;;;;;;;;5011186;28;50919;-57
2021/09/19 05:29:42;;;;;;;;;15.50;15.50;;;;;;;;5009652;28;51144;-57
2021/09/19 05:32:07;;;;;;;;;16.25;16.25;;;;;;;;5012837;28;51052;-57
2021/09/19 05:34:32;;;;;;;;;18.75;17.25;;;;;;;;5012299;28;50952;-57
2021/09/19 05:36:58;;;;;;;;;18.00;18.00;;;;;;;;5009948;28;50975;-58
2021/09/19 05:39:23;;;;;;;;;17.50;17.00;;;;;;;;5012434;28;51082;-58
2021/09/19 05:41:48;;;;;;;;;17.25;17.00;;;;;;;;5012648;28;51154;-58
2021/09/19 05:44:14;;;;;;;;;19.00;18.75;;;;;;;;5013737;28;52046;-58
2021/09/19 05:46:39;;;;;;;;;18.50;17.50;;;;;;;;5015108;28;51029;-56
2021/09/19 05:49:04;;;;;;;;;17.00;17.00;;;;;;;;5015869;28;50987;-57
2021/09/19 05:51:29;;;;;;;;;14.25;14.00;;;;;;;;5014670;28;51282;-57
2021/09/19 05:53:55;;;;;;;;;16.00;16.00;;;;;;;;5015547;28;51001;-57
2021/09/19 05:56:20;;;;;;;;;16.50;16.00;;;;;;;;5014819;28;50929;-56
2021/09/19 05:58:45;;;;;;;;;18.00;17.00;;;;;;;;5012997;28;51097;-57
2021/09/19 06:01:10;;;;;;;;;15.75;14.25;;;;;;;;5013968;28;51155;-57
2021/09/19 06:03:37;;;;;;;;;19.25;17.75;;;;;;;;5015328;28;52922;-57
2021/09/19 06:06:03;;;;;;;;;14.25;13.75;;;;;;;;5014577;28;51034;-56
2021/09/19 06:08:28;;;;;;;;;16.75;16.75;;;;;;;;5013493;28;51202;-57
2021/09/19 06:10:53;;;;;;;;;14.50;14.50;;;;;;;;5015031;28;51117;-57
2021/09/19 06:13:18;;;;;;;;;15.00;15.00;;;;;;;;5014743;28;50995;-57
2021/09/19 06:15:43;;;;;;;;;18.00;17.75;;;;;;;;5014547;28;51048;-57
2021/09/19 06:18:09;;;;;;;;;17.50;17.50;;;;;;;;5011930;28;51279;-59
2021/09/19 06:20:34;;;;;;;;;17.25;17.00;;;;;;;;5015483;28;51117;-57
2021/09/19 06:22:59;;;;;;;;;18.75;17.75;;;;;;;;5015182;28;52698;-58
2021/09/19 06:25:25;;;;;;;;;14.50;14.25;;;;;;;;5015256;28;50941;-57
2021/09/19 06:27:50;;;;;;;;;15.25;14.50;;;;;;;;5013800;28;50976;-57
2021/09/19 06:30:15;;;;;;;;;18.50;18.50;;;;;;;;5013808;28;51189;-58
2021/09/19 06:32:40;;;;;;;;;15.75;15.00;;;;;;;;5014111;28;53013;-56
2021/09/19 06:35:06;;;;;;;;;17.25;16.75;;;;;;;;5013256;28;51458;-56
2021/09/19 06:37:32;;;;;;;;;18.25;17.50;;;;;;;;5015205;28;51019;-57
2021/09/19 06:39:57;;;;;;;;;17.50;17.00;;;;;;;;5011565;28;51269;-57
2021/09/19 06:42:22;;;;;;;;;16.75;16.00;;;;;;;;5013610;28;53046;-59
2021/09/19 06:44:49;;;;;;;;;18.00;17.25;;;;;;;;5013934;28;51098;-59
2021/09/19 06:47:14;;;;;;;;;16.50;15.75;;;;;;;;5012959;28;50905;-59
2021/09/19 06:49:40;;;;;;;;;17.75;17.75;;;;;;;;5012051;28;51242;-58
2021/09/19 06:52:05;;;;;;;;;17.67;17.00;;;;;;;;5012096;28;51741;-57
2021/09/19 06:54:30;;;;;;;;;14.33;13.33;;;;;;;;5014432;28;50932;-57
2021/09/19 06:56:55;;;;;;;;;14.00;14.00;;;;;;;;5012876;28;50972;-58
2021/09/19 06:59:20;;;;;;;;;17.33;16.67;;;;;;;;5012984;28;50972;-58
2021/09/19 07:01:46;;;;;;;;;12.50;12.25;;;;;;;;5012870;28;52128;-58
2021/09/19 07:04:11;;;;;;;;;14.33;13.00;;;;;;;;4998865;28;51204;-58
2021/09/19 07:06:36;;;;;;;;;13.75;13.25;;;;;;;;5014027;28;50992;-57
2021/09/19 07:09:02;;;;;;;;;14.00;14.00;;;;;;;;5011840;28;51073;-58
2021/09/19 07:11:27;;;;;;;;;14.00;14.00;;;;;;;;5005192;28;51889;-58
2021/09/19 07:13:52;;;;;;;;;13.00;13.00;;;;;;;;5009032;28;51153;-53
2021/09/19 07:16:17;;;;;;;;;15.00;14.33;;;;;;;;5278643;22;51197;-52
2021/09/19 07:18:43;;;;;;;;;13.67;13.67;;;;;;;;4992892;28;53051;-53
2021/09/19 07:21:08;;;;;;;;;14.33;14.33;;;;;;;;5006733;28;51922;-53
2021/09/19 07:23:34;;;;;;;;;17.25;14.00;;;;;;;;5012994;28;51181;-54
2021/09/19 07:25:59;;;;;;;;;15.67;14.67;;;;;;;;5019659;28;51050;-53
2021/09/19 07:28:26;;;;;;;;;17.33;15.67;;;;;;;;5012930;28;51268;-53
2021/09/19 07:30:52;;;;;;;;;14.67;13.67;;;;;;;;5008401;28;51995;-53
2021/09/19 07:33:17;;;;;;;;;17.00;16.00;;;;;;;;4990631;28;51210;-55
2021/09/19 07:35:42;;;;;;;;;15.67;14.67;;;;;;;;4988573;28;51198;-52
2021/09/19 07:38:08;;;;;;;;;15.00;15.00;;;;;;;;5011782;28;50914;-50
2021/09/19 07:40:33;;;;;;;;;19.33;16.00;;;;;;;;5008995;28;52028;-53
2021/09/19 07:42:59;;;;;;;;;17.00;16.33;;;;;;;;4994853;28;50993;-51
2021/09/19 07:45:26;;;;;;;;;15.00;13.33;;;;;;;;4992686;28;51139;-53
2021/09/19 07:47:51;;;;;;;;;15.00;15.00;;;;;;;;5013944;28;51006;-53
2021/09/19 07:50:17;;;;;;;;;16.00;16.00;;;;;;;;4989806;28;51028;-52
2021/09/19 07:52:42;;;;;;;;;18.67;18.67;;;;;;;;5005282;28;51173;-52
2021/09/19 07:55:08;;;;;;;;;17.33;16.33;;;;;;;;4995378;28;51116;-54
2021/09/19 07:57:33;;;;;;;;;16.33;16.00;;;;;;;;4992915;28;51122;-53
2021/09/19 07:59:58;;;;;;;;;14.33;14.00;;;;;;;;5012524;28;51184;-53
2021/09/19 08:02:23;;;;;;;;;16.67;16.00;;;;;;;;4998223;28;50978;-52
2021/09/19 08:04:49;;;;;;;;;15.33;15.33;;;;;;;;5013241;28;51015;-53
2021/09/19 08:07:14;;;;;;;;;15.00;15.00;;;;;;;;5012221;28;50936;-54
2021/09/19 08:09:40;;;;;;;;;15.67;15.33;;;;;;;;5012321;28;52998;-51
2021/09/19 08:12:06;;;;;;;;;13.33;13.33;;;;;;;;5012741;28;51091;-52
2021/09/19 08:14:31;;;;;;;;;16.67;16.67;;;;;;;;5013242;28;50935;-53
2021/09/19 08:16:57;;;;;;;;;14.00;14.00;;;;;;;;4995033;28;51029;-54
2021/09/19 08:19:23;;;;;;;;;16.33;15.33;;;;;;;;4981665;28;52764;-54
2021/09/19 08:21:49;;;;;;;;;17.33;17.33;;;;;;;;4991683;28;51020;-54
2021/09/19 08:24:15;;;;;;;;;15.00;15.00;;;;;;;;4993468;28;50927;-54
2021/09/19 08:26:41;;;;;;;;;19.67;18.33;;;;;;;;4993322;28;50927;-54
2021/09/19 08:29:07;;;;;;;;;16.33;16.33;;;;;;;;4992986;28;51885;-53
2021/09/19 08:31:33;;;;;;;;;16.00;16.00;;;;;;;;4992535;28;51106;-51
2021/09/19 08:33:58;;;;;;;;;17.00;16.00;;;;;;;;4992888;28;51075;-54
2021/09/19 08:36:24;;;;;;;;;14.67;14.67;;;;;;;;4993476;28;50930;-53
2021/09/19 08:38:50;;;;;;;;;14.00;14.00;;;;;;;;4991319;28;51753;-54
2021/09/19 08:41:15;;;;;;;;;14.33;14.33;;;;;;;;4992731;28;50899;-55
2021/09/19 08:43:41;;;;;;;;;15.00;15.00;;;;;;;;4992887;28;51010;-55
2021/09/19 08:46:06;;;;;;;;;14.33;13.00;;;;;;;;4992915;28;50921;-56
2021/09/19 08:48:33;;;;;;;;;18.33;17.33;;;;;;;;4992497;28;50956;-52
2021/09/19 08:50:58;;;;;;;;;14.00;14.00;;;;;;;;4992559;28;51184;-53
2021/09/19 08:53:26;;;;;;;;;17.00;16.67;;;;;;;;4992729;28;51065;-56
2021/09/19 08:55:51;;;;;;;;;13.67;13.67;;;;;;;;4992694;28;51154;-53
2021/09/19 08:58:16;;;;;;;;;17.00;15.67;;;;;;;;4991813;28;51712;-53
2021/09/19 09:00:44;;;;;;;;;16.33;16.00;;;;;;;;4991375;28;51021;-53
2021/09/19 09:03:13;;;;;;;;;14.33;14.00;;;;;;;;4992615;28;50982;-53
2021/09/19 09:05:38;;;;;;;;;16.00;15.67;;;;;;;;4992607;28;51244;-53
2021/09/19 09:08:04;;;;;;;;;14.67;14.00;;;;;;;;4992274;28;52046;-54
2021/09/19 09:10:34;;;;;;;;;15.00;14.33;;;;;;;;4975120;28;51046;-54
2021/09/19 09:13:00;;;;;;;;;15.67;15.67;;;;;;;;4992205;28;51055;-58
2021/09/19 09:15:58;;;;;;;;;15.33;14.33;;;;;;;;4991597;28;52636;-53
2021/09/19 09:18:30;;;;;;;;;17.67;16.00;;;;;;;;4954226;28;52823;-53
2021/09/19 09:20:57;;;;;;;;;17.00;16.00;;;;;;;;4987798;28;50973;-52
2021/09/19 09:23:31;;;;;;;;;12.33;12.33;;;;;;;;4973336;28;51017;-53
2021/09/19 09:26:14;;;;;;;;;13.67;13.33;;;;;;;;4996166;28;51121;-52
2021/09/19 09:28:40;;;;;;;;;17.33;16.00;;;;;;;;4995011;28;51856;-54
2021/09/19 09:31:05;;;;;;;;;14.67;14.67;;;;;;;;4995858;28;51349;-53
2021/09/19 09:33:30;;;;;;;;;17.00;16.67;;;;;;;;4978099;28;51121;-53
2021/09/19 09:35:56;;;;;;;;;6.67;4.00;;;;;;;;4995941;28;51212;-52
2021/09/19 09:38:22;;;;;;;;;16.67;15.67;;;;;;;;4977556;28;53916;-54
2021/09/19 09:40:48;;;;;;;;;14.33;14.33;;;;;;;;4995680;28;50965;-54
2021/09/19 09:43:15;;;;;;;;;15.00;15.00;;;;;;;;4994471;28;51056;-53
2021/09/19 09:45:41;;;;;;;;;14.00;14.00;;;;;;;;4994064;28;51020;-55
2021/09/19 09:48:45;;;;;;;;;15.33;14.33;;;;;;;;4994930;28;52456;-54
2021/09/19 09:51:21;;;;;;;;;15.25;15.25;;;;;;;;4953801;28;51064;-54
2021/09/19 09:53:52;;;;;;;;;14.50;14.50;;;;;;;;4952482;28;51349;-53
2021/09/19 09:56:17;;;;;;;;;16.00;15.50;;;;;;;;4977204;28;51266;-54
2021/09/19 09:58:42;;;;;;;;;17.00;16.25;;;;;;;;4992942;28;51247;-54
2021/09/19 10:01:08;;;;;;;;;16.50;16.50;;;;;;;;4994213;28;51067;-54
2021/09/19 10:03:33;;;;;;;;;18.00;17.50;;;;;;;;4994989;28;50971;-54
2021/09/19 10:05:58;;;;;;;;;16.00;16.00;;;;;;;;4995162;28;51230;-53
2021/09/19 10:08:24;;;;;;;;;20.00;16.33;;;;;;;;4994229;28;52278;-53
2021/09/19 10:10:49;;;;;;;;;13.33;13.33;;;;;;;;4994644;28;51057;-54
2021/09/19 10:13:15;;;;;;;;;15.67;15.67;;;;;;;;4994590;28;51283;-54
2021/09/19 10:15:41;;;;;;;;;15.67;14.67;;;;;;;;4974141;28;51116;-54
2021/09/19 10:18:08;;;;;;;;;16.50;14.75;;;;;;;;4982521;28;51092;-53
2021/09/19 10:20:37;;;;;;;;;16.00;15.50;;;;;;;;4988420;28;50995;-54
2021/09/19 10:23:15;;;;;;;;;16.67;16.33;;;;;;;;4994735;28;51115;-53
2021/09/19 10:25:44;;;;;;;;;17.25;17.00;;;;;;;;4976874;28;51368;-53
2021/09/19 10:28:16;;;;;;;;;17.33;17.33;;;;;;;;4993340;28;51148;-54
2021/09/19 10:31:00;;;;;;;;;18.50;18.50;;;;;;;;4992970;28;51095;-52
2021/09/19 10:33:34;;;;;;;;;16.75;15.50;;;;;;;;4994108;28;51053;-52
2021/09/19 10:36:00;;;;;;;;;18.25;18.25;;;;;;;;4976432;28;51275;-54
2021/09/19 10:38:36;;;;;;;;;14.33;13.67;;;;;;;;4993582;28;51877;-55
2021/09/19 10:41:17;;;;;;;;;17.00;16.50;;;;;;;;4994248;28;51033;-54
2021/09/19 10:43:53;;;;;;;;;17.50;17.00;;;;;;;;4993627;28;50987;-55
2021/09/19 10:46:36;;;;;;;;;16.75;16.00;;;;;;;;4994347;28;51418;-55
2021/09/19 10:49:20;;;;;;;;;16.00;15.75;;;;;;;;4993539;28;50993;-54
2021/09/19 10:52:00;;;;;;;;;15.00;15.00;;;;;;;;4997346;28;51016;-53
2021/09/19 10:54:47;;;;;;;;;19.00;18.25;;;;;;;;4989608;28;50868;-53
2021/09/19 10:57:22;;;;;;;;;19.25;17.00;;;;;;;;4981988;28;51171;-53
2021/09/19 11:00:06;;;;;;;;;18.25;17.25;;;;;;;;4993868;28;52206;-55
2021/09/19 11:02:32;;;;;;;;;16.50;15.75;;;;;;;;4993208;28;51063;-54
2021/09/19 11:05:16;;;;;;;;;14.50;14.50;;;;;;;;4993680;28;51304;-54
2021/09/19 11:07:41;;;;;;;;;18.25;18.00;;;;;;;;4993753;28;51374;-53
2021/09/19 11:10:08;;;;;;;;;17.25;16.75;;;;;;;;4993607;28;51319;-52
2021/09/19 11:12:47;;;;;;;;;18.75;17.75;;;;;;;;4993167;28;50970;-54
2021/09/19 11:15:22;;;;;;;;;15.50;14.75;;;;;;;;4989342;28;51043;-54
2021/09/19 11:17:49;;;;;;;;;14.00;14.00;;;;;;;;4992476;28;51355;-54
2021/09/19 11:20:14;;;;;;;;;14.33;14.00;;;;;;;;4992641;28;53583;-53
2021/09/19 11:22:41;;;;;;;;;18.00;18.00;;;;;;;;4993189;28;50910;-53
2021/09/19 11:25:07;;;;;;;;;15.67;14.67;;;;;;;;4993038;28;50839;-54
2021/09/19 11:27:32;;;;;;;;;19.00;18.25;;;;;;;;4993025;28;51154;-55
2021/09/19 11:29:58;;;;;;;;;17.00;17.00;;;;;;;;5000433;28;50897;-55
2021/09/19 11:32:23;;;;;;;;;16.67;16.67;;;;;;;;4973562;28;51083;-54
2021/09/19 11:34:50;;;;;;;;;14.50;14.50;;;;;;;;4992372;28;51099;-54
2021/09/19 11:37:15;;;;;;;;;19.75;18.50;;;;;;;;4975721;28;50952;-54
2021/09/19 11:39:40;;;;;;;;;16.25;16.25;;;;;;;;4992613;28;51321;-55
2021/09/19 11:42:07;;;;;;;;;16.75;16.75;;;;;;;;4991779;28;50978;-54
2021/09/19 11:44:34;;;;;;;;;16.00;15.00;;;;;;;;4975170;28;51065;-55
2021/09/19 11:47:01;;;;;;;;;17.00;15.33;;;;;;;;4991637;28;51123;-55
2021/09/19 11:49:26;;;;;;;;;18.75;17.75;;;;;;;;4991612;28;51889;-53
2021/09/19 11:51:52;;;;;;;;;18.75;17.75;;;;;;;;4992635;28;51007;-54
2021/09/19 11:54:18;;;;;;;;;19.75;19.75;;;;;;;;4992437;28;50996;-54
2021/09/19 11:56:44;;;;;;;;;17.50;17.50;;;;;;;;4992165;28;51284;-54
2021/09/19 11:59:10;;;;;;;;;18.50;18.50;;;;;;;;4992323;28;51263;-54
2021/09/19 12:01:37;;;;;;;;;16.75;16.25;;;;;;;;4992259;28;50906;-55
2021/09/19 12:04:06;;;;;;;;;19.75;18.50;;;;;;;;4992260;28;51062;-57
2021/09/19 12:06:32;;;;;;;;;19.75;18.25;;;;;;;;4992606;28;51327;-56
2021/09/19 12:08:57;;;;;;;;;16.50;16.50;;;;;;;;4974309;28;51960;-55
2021/09/19 12:11:36;;;;;;;;;17.25;16.50;;;;;;;;4990719;28;51215;-55
2021/09/19 12:14:09;;;;;;;;;16.00;15.25;;;;;;;;4992013;28;51053;-54
2021/09/19 12:16:34;;;;;;;;;18.25;18.25;;;;;;;;4984658;28;51259;-54
2021/09/19 12:18:59;;;;;;;;;18.00;17.75;;;;;;;;4976218;28;51899;-54
2021/09/19 12:21:25;;;;;;;;;18.25;17.25;;;;;;;;4981575;28;50941;-55
2021/09/19 12:23:55;;;;;;;;;21.00;19.25;;;;;;;;4992057;28;51318;-54
2021/09/19 12:26:20;;;;;;;;;20.50;19.75;;;;;;;;4992399;28;51161;-54
2021/09/19 12:28:47;;;;;;;;;20.00;19.75;;;;;;;;4991520;28;52578;-54
2021/09/19 12:31:12;;;;;;;;;20.25;19.75;;;;;;;;4991755;28;50827;-54
2021/09/19 12:33:51;;;;;;;;;19.25;17.75;;;;;;;;4974278;28;51209;-54
2021/09/19 12:36:19;;;;;;;;;20.75;20.25;;;;;;;;4992289;28;50968;-54
2021/09/19 12:38:45;;;;;;;;;18.25;17.50;;;;;;;;4991250;28;51783;-54
2021/09/19 12:41:12;;;;;;;;;17.00;17.00;;;;;;;;4991271;28;51115;-57
2021/09/19 12:43:41;;;;;;;;;15.75;14.25;;;;;;;;4992231;28;50969;-54
2021/09/19 12:46:06;;;;;;;;;16.67;16.67;;;;;;;;4993081;28;51361;-54
2021/09/19 12:48:31;;;;;;;;;14.67;14.00;;;;;;;;4991847;28;52039;-54
2021/09/19 12:50:57;;;;;;;;;14.67;14.67;;;;;;;;4992307;28;51163;-54
2021/09/19 12:53:24;;;;;;;;;19.25;19.25;;;;;;;;4974238;28;50987;-54
2021/09/19 12:55:49;;;;;;;;;17.75;15.00;;;;;;;;4991811;28;51066;-56
2021/09/19 12:58:15;;;;;;;;;20.00;19.00;;;;;;;;4990924;28;51353;-55
2021/09/19 13:00:46;;;;;;;;;15.25;15.25;;;;;;;;4992738;28;50953;-53
2021/09/19 13:03:12;;;;;;;;;17.75;17.00;;;;;;;;4992077;28;51044;-55
2021/09/19 13:05:38;;;;;;;;;25.25;23.25;;;;;;;;4992461;28;50984;-56
2021/09/19 13:08:03;;;;;;;;;17.50;15.50;;;;;;;;4974434;28;52095;-54
2021/09/19 13:10:29;;;;;;;;;16.67;15.67;;;;;;;;4990370;28;51099;-54
2021/09/19 13:12:54;;;;;;;;;18.00;17.75;;;;;;;;4990654;28;51286;-54
2021/09/19 13:15:21;;;;;;;;;18.75;18.75;;;;;;;;4990468;28;51217;-55
2021/09/19 13:17:46;;;;;;;;;21.75;21.00;;;;;;;;4989042;28;53023;-53
2021/09/19 13:20:12;;;;;;;;;21.75;21.75;;;;;;;;4971458;28;50934;-54
2021/09/19 13:22:37;;;;;;;;;21.00;20.50;;;;;;;;4985765;28;51020;-56
2021/09/19 13:25:03;;;;;;;;;21.50;21.00;;;;;;;;4991535;28;50907;-54
2021/09/19 13:27:28;;;;;;;;;21.25;21.25;;;;;;;;4990597;28;51707;-56
2021/09/19 13:29:53;;;;;;;;;20.50;20.50;;;;;;;;4973581;28;50926;-55
2021/09/19 13:32:18;;;;;;;;;16.00;16.00;;;;;;;;4991496;28;51006;-54
2021/09/19 13:34:44;;;;;;;;;17.33;17.33;;;;;;;;4991796;28;51375;-54
2021/09/19 13:37:09;;;;;;;;;18.00;18.00;;;;;;;;4990828;28;51856;-53
2021/09/19 13:39:35;;;;;;;;;17.33;17.33;;;;;;;;4990516;28;51244;-54
2021/09/19 13:42:01;;;;;;;;;18.00;18.00;;;;;;;;4978275;28;51107;-55
2021/09/19 13:44:26;;;;;;;;;17.67;17.00;;;;;;;;4991080;28;51257;-54
2021/09/19 13:46:51;;;;;;;;;19.50;18.75;;;;;;;;4990811;28;51090;-53
2021/09/19 13:49:23;;;;;;;;;19.50;19.50;;;;;;;;4990754;28;51103;-54
2021/09/19 13:51:49;;;;;;;;;22.00;20.50;;;;;;;;4991014;28;50910;-54
2021/09/19 13:54:14;;;;;;;;;20.00;19.50;;;;;;;;4990780;28;51377;-54
2021/09/19 13:56:39;;;;;;;;;16.50;16.50;;;;;;;;4990307;28;51056;-55
2021/09/19 13:59:04;;;;;;;;;18.00;18.00;;;;;;;;4990626;28;50910;-52
2021/09/19 14:01:29;;;;;;;;;17.25;17.00;;;;;;;;4990875;28;50860;-54
2021/09/19 14:03:55;;;;;;;;;19.00;18.75;;;;;;;;4973214;28;51324;-53
2021/09/19 14:06:20;;;;;;;;;17.67;16.67;;;;;;;;4993600;28;51645;-55
2021/09/19 14:08:45;;;;;;;;;16.33;16.33;;;;;;;;4994010;28;51099;-53
2021/09/19 14:11:11;;;;;;;;;17.33;16.00;;;;;;;;4993746;28;51801;-55
2021/09/19 14:13:36;;;;;;;;;19.67;19.00;;;;;;;;4994014;28;51094;-54
2021/09/19 14:16:01;;;;;;;;;18.00;18.00;;;;;;;;4986234;28;51896;-55